createdAt,value
2019-04-01T00:02:07.509Z,2.93
2019-04-01T00:04:47.822Z,3.43
2019-04-01T00:07:28.944Z,2.60
2019-04-01T00:10:09.900Z,2.43
2019-04-01T00:12:50.803Z,3.27
2019-04-01T00:15:31.798Z,2.73
2019-04-01T00:18:12.694Z,2.40
2019-04-01T00:20:53.577Z,2.60
2019-04-01T00:23:34.324Z,2.90
2019-04-01T00:26:14.845Z,2.43
2019-04-01T00:28:55.738Z,2.23
2019-04-01T00:31:36.599Z,2.30
2019-04-01T00:34:17.149Z,2.17
2019-04-01T00:36:57.976Z,2.67
2019-04-01T00:39:38.794Z,2.40
2019-04-01T00:42:38.878Z,2.20
2019-04-01T00:45:20.878Z,2.10
2019-04-01T00:48:01.939Z,1.70
2019-04-01T00:50:42.574Z,1.50
2019-04-01T00:53:23.479Z,2.20
2019-04-01T00:56:04.004Z,2.20
2019-04-01T00:58:44.762Z,2.37
2019-04-01T01:01:25.599Z,2.87
2019-04-01T01:04:06.468Z,1.83
2019-04-01T01:06:47.373Z,2.33
2019-04-01T01:09:28.145Z,2.00
2019-04-01T01:12:08.817Z,2.23
2019-04-01T01:14:49.520Z,2.07
2019-04-01T01:17:30.362Z,1.80
2019-04-01T01:20:10.937Z,1.90
2019-04-01T01:22:51.834Z,2.40
2019-04-01T01:25:32.723Z,2.50
2019-04-01T01:28:13.679Z,1.97
2019-04-01T01:30:54.723Z,2.00
2019-04-01T01:33:35.464Z,2.10
2019-04-01T01:36:16.024Z,2.13
2019-04-01T01:38:56.677Z,1.93
2019-04-01T01:41:37.574Z,2.20
2019-04-01T01:44:18.369Z,1.70
2019-04-01T01:46:59.337Z,1.90
2019-04-01T01:49:40.064Z,2.00
2019-04-01T01:52:20.671Z,2.10
2019-04-01T01:55:01.503Z,2.10
2019-04-01T01:57:42.456Z,2.33
2019-04-01T02:00:24.081Z,1.83
2019-04-01T02:03:05.223Z,1.80
2019-04-01T02:05:45.879Z,1.80
2019-04-01T02:08:26.521Z,2.03
2019-04-01T02:11:07.150Z,1.90
2019-04-01T02:13:48.118Z,1.63
2019-04-01T02:16:29.144Z,2.20
2019-04-01T02:19:10.116Z,2.40
2019-04-01T02:21:50.879Z,2.20
2019-04-01T02:24:31.617Z,2.03
2019-04-01T02:27:12.453Z,1.80
2019-04-01T02:29:53.257Z,2.10
2019-04-01T02:32:34.094Z,2.27
2019-04-01T02:35:14.881Z,2.17
2019-04-01T02:37:55.707Z,2.57
2019-04-01T02:40:36.289Z,2.03
2019-04-01T02:43:17.240Z,2.03
2019-04-01T02:45:58.117Z,1.70
2019-04-01T02:48:38.785Z,2.00
2019-04-01T02:51:19.486Z,2.60
2019-04-01T02:54:00.373Z,3.13
2019-04-01T02:56:41.068Z,3.20
2019-04-01T02:59:21.683Z,2.83
2019-04-01T03:02:02.251Z,2.30
2019-04-01T03:04:42.738Z,1.93
2019-04-01T03:07:23.733Z,2.17
2019-04-01T03:10:04.358Z,2.00
2019-04-01T03:12:45.155Z,2.10
2019-04-01T03:15:25.812Z,2.70
2019-04-01T03:18:06.806Z,2.13
2019-04-01T03:20:47.932Z,2.40
2019-04-01T03:23:28.933Z,2.47
2019-04-01T03:26:10.053Z,2.20
2019-04-01T03:28:50.874Z,2.23
2019-04-01T03:31:31.677Z,2.63
2019-04-01T03:34:12.545Z,2.23
2019-04-01T03:36:53.123Z,2.63
2019-04-01T03:39:33.938Z,2.10
2019-04-01T03:42:14.287Z,2.03
2019-04-01T03:44:55.642Z,2.07
2019-04-01T03:47:36.083Z,2.40
2019-04-01T03:50:16.923Z,1.90
2019-04-01T03:52:57.773Z,2.30
2019-04-01T03:55:38.748Z,3.23
2019-04-01T03:58:19.608Z,2.20
2019-04-01T04:01:00.443Z,2.10
2019-04-01T04:03:40.964Z,2.40
2019-04-01T04:06:21.914Z,2.30
2019-04-01T04:09:03.778Z,2.67
2019-04-01T04:11:44.788Z,2.50
2019-04-01T04:14:25.841Z,2.30
2019-04-01T04:17:06.607Z,2.50
2019-04-01T04:19:47.278Z,2.40
2019-04-01T04:22:28.102Z,2.33
2019-04-01T04:25:08.957Z,2.60
2019-04-01T04:27:49.713Z,2.07
2019-04-01T04:30:30.459Z,2.00
2019-04-01T04:33:11.147Z,2.40
2019-04-01T04:35:52.050Z,2.50
2019-04-01T04:38:33.014Z,3.37
2019-04-01T04:41:13.861Z,2.93
2019-04-01T04:43:54.391Z,3.10
2019-04-01T04:46:35.058Z,2.83
2019-04-01T04:49:16.092Z,2.00
2019-04-01T04:51:56.855Z,2.30
2019-04-01T04:54:37.823Z,2.57
2019-04-01T04:57:20.356Z,2.90
2019-04-01T05:00:01.032Z,3.43
2019-04-01T05:02:42.125Z,3.33
2019-04-01T05:05:22.698Z,2.27
2019-04-01T05:08:02.928Z,3.67
2019-04-01T05:10:43.626Z,2.80
2019-04-01T05:13:24.426Z,3.37
2019-04-01T05:16:05.282Z,5.50
2019-04-01T05:18:46.047Z,3.73
2019-04-01T05:21:26.666Z,4.37
2019-04-01T05:24:07.271Z,3.27
2019-04-01T05:26:47.951Z,3.20
2019-04-01T05:29:28.638Z,2.97
2019-04-01T05:32:09.034Z,2.70
2019-04-01T05:34:49.369Z,2.90
2019-04-01T05:37:30.218Z,2.97
2019-04-01T05:40:10.847Z,2.33
2019-04-01T05:42:51.729Z,2.27
2019-04-01T05:45:32.831Z,2.20
2019-04-01T05:48:14.517Z,1.70
2019-04-01T05:50:55.352Z,2.50
2019-04-01T05:53:36.152Z,2.53
2019-04-01T05:56:16.848Z,3.40
2019-04-01T05:58:57.554Z,2.47
2019-04-01T06:01:40.432Z,2.33
2019-04-01T06:04:21.312Z,2.63
2019-04-01T06:07:01.802Z,2.90
2019-04-01T06:09:42.363Z,2.70
2019-04-01T06:12:24.310Z,2.90
2019-04-01T06:15:04.887Z,3.10
2019-04-01T06:17:45.924Z,2.77
2019-04-01T06:20:26.782Z,2.90
2019-04-01T06:23:07.832Z,3.40
2019-04-01T06:25:48.437Z,2.93
2019-04-01T06:28:29.127Z,2.97
2019-04-01T06:31:10.006Z,4.10
2019-04-01T06:33:51.066Z,3.17
2019-04-01T06:36:32.063Z,2.77
2019-04-01T06:39:12.758Z,2.93
2019-04-01T06:41:53.548Z,3.00
2019-04-01T06:44:34.448Z,3.00
2019-04-01T06:47:15.125Z,3.23
2019-04-01T06:49:55.681Z,3.50
2019-04-01T06:52:36.204Z,3.60
2019-04-01T06:55:17.061Z,3.70
2019-04-01T06:57:57.767Z,3.73
2019-04-01T07:00:38.743Z,3.40
2019-04-01T07:03:19.262Z,2.90
2019-04-01T07:06:00.092Z,3.20
2019-04-01T07:08:40.637Z,3.60
2019-04-01T07:11:21.487Z,2.87
2019-04-01T07:14:02.278Z,3.40
2019-04-01T07:16:42.975Z,3.40
2019-04-01T07:19:23.875Z,3.50
2019-04-01T07:22:04.612Z,3.50
2019-04-01T07:24:45.312Z,3.67
2019-04-01T07:27:26.213Z,3.57
2019-04-01T07:30:07.006Z,4.13
2019-04-01T07:32:47.938Z,3.60
2019-04-01T07:35:28.485Z,3.50
2019-04-01T07:38:09.453Z,3.63
2019-04-01T07:40:50.427Z,3.67
2019-04-01T07:43:31.045Z,3.93
2019-04-01T07:46:11.709Z,3.97
2019-04-01T07:48:52.702Z,2.97
2019-04-01T07:51:33.417Z,3.50
2019-04-01T07:54:14.444Z,3.00
2019-04-01T07:56:55.432Z,3.00
2019-04-01T07:59:36.296Z,3.00
2019-04-01T08:02:17.101Z,2.77
2019-04-01T08:04:58.029Z,2.93
2019-04-01T08:07:38.682Z,3.30
2019-04-01T08:10:19.363Z,2.93
2019-04-01T08:13:00.041Z,3.10
2019-04-01T08:15:40.476Z,3.23
2019-04-01T08:18:21.256Z,2.63
2019-04-01T08:21:01.971Z,3.03
2019-04-01T08:23:42.739Z,2.80
2019-04-01T08:26:23.352Z,2.60
2019-04-01T08:29:04.117Z,2.90
2019-04-01T08:31:45.039Z,2.80
2019-04-01T08:34:25.972Z,2.80
2019-04-01T08:37:06.632Z,2.53
2019-04-01T08:39:47.231Z,2.73
2019-04-01T08:42:28.146Z,2.70
2019-04-01T08:45:08.898Z,2.83
2019-04-01T08:47:49.552Z,2.43
2019-04-01T08:50:30.422Z,2.67
2019-04-01T08:53:11.222Z,2.40
2019-04-01T08:56:00.274Z,2.17
2019-04-01T08:58:34.736Z,2.50
2019-04-01T09:01:15.544Z,2.90
2019-04-01T09:03:56.125Z,2.40
2019-04-01T09:06:37.236Z,2.70
2019-04-01T09:09:18.007Z,2.43
2019-04-01T09:11:58.710Z,2.63
2019-04-01T09:14:37.372Z,3.47
2019-04-01T09:17:25.075Z,2.90
2019-04-01T09:20:12.862Z,2.23
2019-04-01T09:23:00.672Z,2.70
2019-04-01T09:25:50.069Z,2.80
2019-04-01T09:28:37.915Z,3.37
2019-04-01T09:34:32.485Z,2.87
2019-04-01T09:37:20.203Z,2.53
2019-04-01T09:40:07.996Z,2.53
2019-04-01T09:42:55.683Z,2.90
2019-04-01T09:45:43.492Z,2.57
2019-04-01T09:48:31.205Z,2.40
2019-04-01T09:51:18.953Z,2.77
2019-04-01T09:54:06.682Z,2.77
2019-04-01T09:56:54.415Z,2.87
2019-04-01T09:59:42.168Z,2.77
2019-04-01T10:02:32.224Z,2.50
2019-04-01T10:05:19.417Z,2.63
2019-04-01T10:08:00.021Z,2.90
2019-04-01T10:10:40.879Z,2.57
2019-04-01T10:13:21.630Z,2.83
2019-04-01T10:16:02.126Z,3.07
2019-04-01T10:18:42.620Z,2.77
2019-04-01T10:21:23.150Z,2.43
2019-04-01T10:24:03.626Z,2.87
2019-04-01T10:26:44.550Z,3.20
2019-04-01T10:29:25.302Z,3.00
2019-04-01T10:32:05.768Z,3.00
2019-04-01T10:34:46.571Z,2.87
2019-04-01T10:37:27.588Z,2.70
2019-04-01T10:40:08.262Z,3.07
2019-04-01T10:42:48.917Z,3.27
2019-04-01T10:45:29.917Z,3.25
2019-04-01T10:48:10.861Z,2.83
2019-04-01T10:50:51.561Z,3.40
2019-04-01T10:53:32.209Z,3.37
2019-04-01T10:56:12.860Z,3.30
2019-04-01T10:58:53.035Z,3.10
2019-04-01T11:01:33.807Z,3.05
2019-04-01T11:04:14.622Z,3.10
2019-04-01T11:06:55.513Z,3.10
2019-04-01T11:09:38.518Z,3.15
2019-04-01T11:12:18.875Z,3.83
2019-04-01T11:14:59.406Z,3.30
2019-04-01T11:17:40.179Z,3.40
2019-04-01T11:20:21.072Z,3.08
2019-04-01T11:23:02.851Z,3.27
2019-04-01T11:25:44.610Z,3.67
2019-04-01T11:28:25.145Z,3.85
2019-04-01T11:31:05.699Z,3.70
2019-04-01T11:33:46.665Z,3.70
2019-04-01T11:36:27.436Z,3.33
2019-04-01T11:39:08.121Z,3.58
2019-04-01T11:41:48.748Z,4.05
2019-04-01T11:44:31.546Z,3.20
2019-04-01T11:47:12.065Z,3.42
2019-04-01T11:49:52.906Z,3.33
2019-04-01T11:52:33.561Z,3.90
2019-04-01T11:55:14.069Z,3.30
2019-04-01T11:57:54.643Z,3.67
2019-04-01T12:00:35.455Z,3.50
2019-04-01T12:03:16.167Z,3.58
2019-04-01T12:05:56.607Z,3.65
2019-04-01T12:08:37.352Z,3.65
2019-04-01T12:11:17.769Z,3.60
2019-04-01T12:13:58.428Z,3.70
2019-04-01T12:16:38.864Z,3.52
2019-04-01T12:19:19.340Z,3.67
2019-04-01T12:21:59.717Z,3.52
2019-04-01T12:24:40.631Z,4.03
2019-04-01T12:27:21.125Z,3.85
2019-04-01T12:30:01.589Z,3.40
2019-04-01T12:32:42.201Z,3.62
2019-04-01T12:35:22.584Z,3.08
2019-04-01T12:38:03.345Z,3.50
2019-04-01T12:40:44.236Z,3.40
2019-04-01T12:43:25.172Z,3.02
2019-04-01T12:46:06.007Z,3.40
2019-04-01T12:48:46.499Z,3.52
2019-04-01T12:51:27.528Z,3.72
2019-04-01T12:54:08.420Z,3.47
2019-04-01T12:56:49.417Z,3.58
2019-04-01T12:59:29.774Z,3.12
2019-04-01T13:02:10.745Z,4.33
2019-04-01T13:04:51.682Z,3.62
2019-04-01T13:07:32.189Z,4.10
2019-04-01T13:10:12.639Z,3.87
2019-04-01T13:12:54.301Z,3.58
2019-04-01T13:15:34.797Z,3.60
2019-04-01T13:18:15.529Z,3.92
2019-04-01T13:20:56.160Z,3.85
2019-04-01T13:23:36.846Z,4.10
2019-04-01T13:26:17.617Z,4.00
2019-04-01T13:28:58.266Z,3.75
2019-04-01T13:31:39.136Z,4.20
2019-04-01T13:34:20.257Z,3.92
2019-04-01T13:37:01.526Z,3.62
2019-04-01T13:39:42.303Z,3.83
2019-04-01T13:42:24.880Z,3.85
2019-04-01T13:45:05.785Z,3.85
2019-04-01T13:47:46.930Z,3.65
2019-04-01T13:50:27.310Z,3.92
2019-04-01T13:53:07.995Z,3.75
2019-04-01T13:55:49.029Z,4.40
2019-04-01T13:58:29.714Z,3.75
2019-04-01T14:01:10.629Z,3.40
2019-04-01T14:03:51.344Z,4.08
2019-04-01T14:06:32.094Z,4.12
2019-04-01T14:09:12.712Z,3.90
2019-04-01T14:11:53.226Z,3.98
2019-04-01T14:14:34.183Z,4.40
2019-04-01T14:17:14.864Z,3.85
2019-04-01T14:19:55.330Z,4.12
2019-04-01T14:22:35.645Z,4.40
2019-04-01T14:25:16.468Z,3.72
2019-04-01T14:27:57.294Z,4.05
2019-04-01T14:30:38.098Z,4.25
2019-04-01T14:33:18.550Z,4.22
2019-04-01T14:35:58.853Z,4.72
2019-04-01T14:38:39.504Z,3.95
2019-04-01T14:41:20.080Z,4.25
2019-04-01T14:44:00.761Z,3.95
2019-04-01T14:46:41.720Z,4.30
2019-04-01T14:49:22.323Z,4.12
2019-04-01T14:52:02.638Z,4.90
2019-04-01T14:54:43.599Z,4.15
2019-04-01T14:57:25.203Z,4.20
2019-04-01T15:00:06.934Z,5.10
2019-04-01T15:02:47.523Z,4.47
2019-04-01T15:05:28.354Z,4.40
2019-04-01T15:08:09.186Z,4.40
2019-04-01T15:10:50.012Z,4.60
2019-04-01T15:13:30.896Z,4.53
2019-04-01T15:16:11.315Z,4.30
2019-04-01T15:18:51.949Z,4.47
2019-04-01T15:21:32.910Z,4.65
2019-04-01T15:24:13.510Z,5.10
2019-04-01T15:26:54.524Z,4.92
2019-04-01T15:29:35.022Z,5.10
2019-04-01T15:32:15.745Z,4.65
2019-04-01T15:34:56.469Z,4.62
2019-04-01T15:37:37.241Z,4.80
2019-04-01T15:40:18.279Z,4.72
2019-04-01T15:42:59.615Z,4.70
2019-04-01T15:45:40.213Z,5.15
2019-04-01T15:48:21.309Z,5.05
2019-04-01T15:51:01.710Z,4.58
2019-04-01T15:53:42.534Z,5.05
2019-04-01T15:56:23.014Z,4.85
2019-04-01T15:59:03.830Z,5.05
2019-04-01T16:01:44.450Z,4.87
2019-04-01T16:04:25.323Z,5.15
2019-04-01T16:07:06.078Z,4.72
2019-04-01T16:09:46.517Z,5.80
2019-04-01T16:12:27.249Z,5.03
2019-04-01T16:15:09.059Z,5.08
2019-04-01T16:17:49.525Z,5.17
2019-04-01T16:20:33.979Z,5.60
2019-04-01T16:23:13.420Z,5.30
2019-04-01T16:25:54.020Z,5.28
2019-04-01T16:28:34.999Z,4.65
2019-04-01T16:31:15.697Z,5.15
2019-04-01T16:33:56.658Z,4.77
2019-04-01T16:36:37.259Z,4.97
2019-04-01T16:39:17.745Z,5.20
2019-04-01T16:41:58.425Z,5.27
2019-04-01T16:44:39.403Z,5.27
2019-04-01T16:47:19.940Z,4.70
2019-04-01T16:50:00.433Z,4.90
2019-04-01T16:52:40.755Z,4.50
2019-04-01T16:55:21.290Z,4.77
2019-04-01T16:58:03.075Z,5.10
2019-04-01T17:00:43.758Z,4.67
2019-04-01T17:03:24.254Z,4.80
2019-04-01T17:06:04.716Z,4.93
2019-04-01T17:08:45.387Z,4.77
2019-04-01T17:11:26.340Z,4.77
2019-04-01T17:14:09.184Z,5.20
2019-04-01T17:16:49.397Z,5.20
2019-04-01T17:19:29.905Z,4.90
2019-04-01T17:22:11.550Z,4.90
2019-04-01T17:24:52.476Z,6.27
2019-04-01T17:27:33.362Z,7.03
2019-04-01T17:30:14.068Z,5.70
2019-04-01T17:32:54.518Z,6.17
2019-04-01T17:35:35.535Z,8.20
2019-04-01T17:38:15.883Z,10.00
2019-04-01T17:40:56.716Z,8.13
2019-04-01T17:43:37.574Z,6.43
2019-04-01T17:46:18.435Z,5.97
2019-04-01T17:48:59.003Z,5.30
2019-04-01T17:51:39.836Z,5.50
2019-04-01T17:54:20.644Z,5.60
2019-04-01T17:57:01.663Z,5.83
2019-04-01T17:59:44.136Z,5.83
2019-04-01T18:02:25.302Z,5.83
2019-04-01T18:05:05.785Z,5.23
2019-04-01T18:07:46.271Z,5.87
2019-04-01T18:10:28.121Z,5.27
2019-04-01T18:13:08.989Z,5.40
2019-04-01T18:15:49.803Z,5.83
2019-04-01T18:18:33.906Z,6.10
2019-04-01T18:21:13.508Z,6.20
2019-04-01T18:23:54.903Z,5.70
2019-04-01T18:26:35.366Z,6.03
2019-04-01T18:29:16.213Z,6.13
2019-04-01T18:31:59.031Z,6.63
2019-04-01T18:34:39.180Z,7.17
2019-04-01T18:37:21.081Z,8.33
2019-04-01T18:40:01.700Z,8.20
2019-04-01T18:42:42.294Z,8.27
2019-04-01T18:45:22.991Z,10.07
2019-04-01T18:48:03.548Z,9.30
2019-04-01T18:50:44.174Z,9.13
2019-04-01T18:53:28.268Z,9.33
2019-04-01T18:56:07.776Z,7.30
2019-04-01T18:58:48.010Z,7.60
2019-04-01T19:01:29.096Z,8.33
2019-04-01T19:04:09.784Z,7.67
2019-04-01T19:06:50.135Z,6.60
2019-04-01T19:09:32.533Z,5.60
2019-04-01T19:12:13.074Z,5.80
2019-04-01T19:14:53.731Z,6.37
2019-04-01T19:17:34.332Z,6.17
2019-04-01T19:20:15.088Z,7.17
2019-04-01T19:22:55.742Z,6.03
2019-04-01T19:25:36.089Z,6.07
2019-04-01T19:28:18.230Z,5.80
2019-04-01T19:30:59.516Z,5.67
2019-04-01T19:33:41.165Z,5.87
2019-04-01T19:36:22.270Z,6.07
2019-04-01T19:39:02.649Z,5.30
2019-04-01T19:41:43.192Z,5.37
2019-04-01T19:44:23.957Z,7.53
2019-04-01T19:47:07.044Z,6.23
2019-04-01T19:49:48.008Z,5.37
2019-04-01T19:52:28.970Z,5.33
2019-04-01T19:55:10.001Z,5.27
2019-04-01T19:57:50.458Z,5.90
2019-04-01T20:00:31.118Z,5.23
2019-04-01T20:03:11.601Z,5.83
2019-04-01T20:05:52.545Z,6.30
2019-04-01T20:08:32.925Z,5.53
2019-04-01T20:11:15.221Z,5.43
2019-04-01T20:13:56.664Z,6.03
2019-04-01T20:16:37.290Z,7.00
2019-04-01T20:19:18.119Z,6.27
2019-04-01T20:21:58.895Z,6.30
2019-04-01T20:24:39.623Z,6.63
2019-04-01T20:27:20.722Z,6.40
2019-04-01T20:30:01.432Z,6.50
2019-04-01T20:32:41.928Z,6.50
2019-04-01T20:35:23.884Z,6.43
2019-04-01T20:38:04.360Z,5.93
2019-04-01T20:40:45.131Z,5.93
2019-04-01T20:43:25.744Z,5.73
2019-04-01T20:46:06.149Z,5.77
2019-04-01T20:48:46.867Z,6.37
2019-04-01T20:51:27.300Z,6.33
2019-04-01T20:54:08.175Z,6.67
2019-04-01T20:56:49.384Z,6.73
2019-04-01T20:59:30.119Z,6.80
2019-04-01T21:02:10.710Z,6.40
2019-04-01T21:04:51.470Z,6.30
2019-04-01T21:07:32.057Z,5.93
2019-04-01T21:10:13.959Z,6.83
2019-04-01T21:12:54.418Z,6.53
2019-04-01T21:15:34.879Z,6.53
2019-04-01T21:18:15.752Z,7.40
2019-04-01T21:20:56.303Z,6.13
2019-04-01T21:23:36.967Z,6.10
2019-04-01T21:26:17.702Z,6.60
2019-04-01T21:28:58.537Z,6.80
2019-04-01T21:31:39.547Z,7.40
2019-04-01T21:34:20.233Z,7.40
2019-04-01T21:37:03.243Z,7.20
2019-04-01T21:39:43.855Z,7.57
2019-04-01T21:42:24.433Z,7.33
2019-04-01T21:45:04.680Z,7.47
2019-04-01T21:47:45.237Z,8.03
2019-04-01T21:50:26.031Z,7.50
2019-04-01T21:53:06.448Z,7.23
2019-04-01T21:55:47.394Z,7.37
2019-04-01T21:58:27.991Z,7.03
2019-04-01T22:01:08.813Z,7.17
2019-04-01T22:03:49.730Z,7.00
2019-04-01T22:06:30.310Z,7.13
2019-04-01T22:09:11.090Z,7.27
2019-04-01T22:11:51.708Z,6.40
2019-04-01T22:14:32.513Z,6.60
2019-04-01T22:17:13.444Z,6.23
2019-04-01T22:19:54.307Z,6.63
2019-04-01T22:22:35.111Z,6.87
2019-04-01T22:25:16.094Z,7.17
2019-04-01T22:27:56.678Z,6.47
2019-04-01T22:30:37.537Z,5.90
2019-04-01T22:33:18.509Z,6.73
2019-04-01T22:35:59.253Z,6.37
2019-04-01T22:38:39.952Z,7.13
2019-04-01T22:41:20.848Z,6.80
2019-04-01T22:44:01.197Z,6.90
2019-04-01T22:46:42.412Z,6.90
2019-04-01T22:49:22.794Z,6.80
2019-04-01T22:52:03.794Z,6.97
2019-04-01T22:54:44.099Z,6.57
2019-04-01T22:57:25.053Z,7.10
2019-04-01T23:00:05.537Z,6.33
2019-04-01T23:02:46.007Z,6.67
2019-04-01T23:05:26.807Z,7.07
2019-04-01T23:08:07.216Z,6.70
2019-04-01T23:10:47.753Z,6.23
2019-04-01T23:13:28.592Z,6.00
2019-04-01T23:16:09.056Z,6.60
2019-04-01T23:18:49.562Z,6.50
2019-04-01T23:21:31.081Z,6.80
2019-04-01T23:24:11.742Z,6.47
2019-04-01T23:26:52.523Z,6.40
2019-04-01T23:29:32.927Z,6.60
2019-04-01T23:32:13.773Z,7.00
2019-04-01T23:34:54.737Z,6.97
2019-04-01T23:37:35.539Z,6.63
2019-04-01T23:40:16.078Z,7.00
2019-04-01T23:42:57.699Z,7.07
2019-04-01T23:45:38.784Z,6.97
2019-04-01T23:48:19.631Z,6.70
2019-04-01T23:51:00.283Z,7.60
2019-04-01T23:53:41.061Z,7.10
2019-04-01T23:56:21.693Z,6.83
2019-04-01T23:59:02.986Z,6.63
